sensor_id;sensor_type;location;lat;lon;timestamp;P1;durP1;ratioP1;P2;durP2;ratioP2
64597;SDS011;51004;54.692;9.332;2022-12-07T00:00:19;9.93;;;6.88;;
64597;SDS011;51004;54.692;9.332;2022-12-07T00:02:45;9.88;;;7.07;;
64597;SDS011;51004;54.692;9.332;2022-12-07T00:05:11;8.45;;;6.88;;
64597;SDS011;51004;54.692;9.332;2022-12-07T00:07:37;10.52;;;7.97;;
64597;SDS011;51004;54.692;9.332;2022-12-07T00:10:03;10.18;;;6.55;;
64597;SDS011;51004;54.692;9.332;2022-12-07T00:12:29;9.95;;;7.63;;
64597;SDS011;51004;54.692;9.332;2022-12-07T00:14:55;10.82;;;7.15;;
64597;SDS011;51004;54.692;9.332;2022-12-07T00:17:21;9.80;;;7.05;;
64597;SDS011;51004;54.692;9.332;2022-12-07T00:19:47;9.13;;;6.40;;
64597;SDS011;51004;54.692;9.332;2022-12-07T00:22:13;10.25;;;7.50;;
64597;SDS011;51004;54.692;9.332;2022-12-07T00:24:38;8.95;;;6.70;;
64597;SDS011;51004;54.692;9.332;2022-12-07T00:27:04;9.45;;;6.57;;
64597;SDS011;51004;54.692;9.332;2022-12-07T00:29:30;10.90;;;7.15;;
64597;SDS011;51004;54.692;9.332;2022-12-07T00:31:56;9.10;;;7.18;;
64597;SDS011;51004;54.692;9.332;2022-12-07T00:34:22;7.90;;;6.28;;
64597;SDS011;51004;54.692;9.332;2022-12-07T00:36:48;13.85;;;6.40;;
64597;SDS011;51004;54.692;9.332;2022-12-07T00:39:15;9.25;;;6.63;;
64597;SDS011;51004;54.692;9.332;2022-12-07T00:41:41;7.60;;;5.57;;
64597;SDS011;51004;54.692;9.332;2022-12-07T00:44:07;8.88;;;6.03;;
64597;SDS011;51004;54.692;9.332;2022-12-07T00:46:33;8.65;;;5.57;;
64597;SDS011;51004;54.692;9.332;2022-12-07T00:48:59;7.68;;;6.13;;
64597;SDS011;51004;54.692;9.332;2022-12-07T00:51:25;8.75;;;5.63;;
64597;SDS011;51004;54.692;9.332;2022-12-07T00:53:51;9.50;;;6.32;;
64597;SDS011;51004;54.692;9.332;2022-12-07T00:56:25;9.50;;;6.90;;
64597;SDS011;51004;54.692;9.332;2022-12-07T00:58:55;9.85;;;7.50;;
64597;SDS011;51004;54.692;9.332;2022-12-07T01:01:21;8.75;;;6.45;;
64597;SDS011;51004;54.692;9.332;2022-12-07T01:03:47;9.70;;;7.10;;
64597;SDS011;51004;54.692;9.332;2022-12-07T01:06:14;11.85;;;7.20;;
64597;SDS011;51004;54.692;9.332;2022-12-07T01:08:41;8.60;;;6.45;;
64597;SDS011;51004;54.692;9.332;2022-12-07T01:11:07;8.88;;;6.57;;
64597;SDS011;51004;54.692;9.332;2022-12-07T01:13:34;8.57;;;6.50;;
64597;SDS011;51004;54.692;9.332;2022-12-07T01:16:01;9.18;;;6.45;;
64597;SDS011;51004;54.692;9.332;2022-12-07T01:18:27;8.88;;;6.75;;
64597;SDS011;51004;54.692;9.332;2022-12-07T01:20:57;12.93;;;7.68;;
64597;SDS011;51004;54.692;9.332;2022-12-07T01:23:23;10.05;;;6.85;;
64597;SDS011;51004;54.692;9.332;2022-12-07T01:25:56;9.65;;;7.30;;
64597;SDS011;51004;54.692;9.332;2022-12-07T01:28:22;10.57;;;6.88;;
64597;SDS011;51004;54.692;9.332;2022-12-07T01:30:58;11.10;;;8.15;;
64597;SDS011;51004;54.692;9.332;2022-12-07T01:33:24;10.80;;;7.38;;
64597;SDS011;51004;54.692;9.332;2022-12-07T01:35:51;10.90;;;7.60;;
64597;SDS011;51004;54.692;9.332;2022-12-07T01:38:17;10.88;;;7.95;;
64597;SDS011;51004;54.692;9.332;2022-12-07T01:40:43;10.02;;;7.40;;
64597;SDS011;51004;54.692;9.332;2022-12-07T01:43:16;8.75;;;7.22;;
64597;SDS011;51004;54.692;9.332;2022-12-07T01:45:43;11.05;;;8.02;;
64597;SDS011;51004;54.692;9.332;2022-12-07T01:48:09;12.98;;;7.35;;
64597;SDS011;51004;54.692;9.332;2022-12-07T01:50:36;10.60;;;7.85;;
64597;SDS011;51004;54.692;9.332;2022-12-07T01:53:04;11.18;;;7.97;;
64597;SDS011;51004;54.692;9.332;2022-12-07T01:55:32;10.02;;;7.80;;
64597;SDS011;51004;54.692;9.332;2022-12-07T01:57:58;12.50;;;8.10;;
64597;SDS011;51004;54.692;9.332;2022-12-07T02:00:24;9.82;;;7.38;;
64597;SDS011;51004;54.692;9.332;2022-12-07T02:02:55;10.80;;;8.23;;
64597;SDS011;51004;54.692;9.332;2022-12-07T02:05:21;11.35;;;7.38;;
64597;SDS011;51004;54.692;9.332;2022-12-07T02:07:48;9.35;;;7.18;;
64597;SDS011;51004;54.692;9.332;2022-12-07T02:10:15;10.82;;;8.15;;
64597;SDS011;51004;54.692;9.332;2022-12-07T02:12:42;9.95;;;7.63;;
64597;SDS011;51004;54.692;9.332;2022-12-07T02:15:09;11.50;;;7.97;;
64597;SDS011;51004;54.692;9.332;2022-12-07T02:17:38;13.32;;;8.23;;
64597;SDS011;51004;54.692;9.332;2022-12-07T02:20:11;11.15;;;8.13;;
64597;SDS011;51004;54.692;9.332;2022-12-07T02:22:48;10.80;;;7.87;;
64597;SDS011;51004;54.692;9.332;2022-12-07T02:28:01;12.25;;;9.05;;
64597;SDS011;51004;54.692;9.332;2022-12-07T02:30:31;14.60;;;9.30;;
64597;SDS011;51004;54.692;9.332;2022-12-07T02:33:11;13.13;;;9.25;;
64597;SDS011;51004;54.692;9.332;2022-12-07T02:35:48;15.23;;;8.98;;
64597;SDS011;51004;54.692;9.332;2022-12-07T02:39:01;14.80;;;8.98;;
64597;SDS011;51004;54.692;9.332;2022-12-07T02:41:08;13.60;;;8.98;;
64597;SDS011;51004;54.692;9.332;2022-12-07T02:43:37;11.90;;;8.77;;
64597;SDS011;51004;54.692;9.332;2022-12-07T02:46:06;11.90;;;8.52;;
64597;SDS011;51004;54.692;9.332;2022-12-07T02:48:34;15.05;;;8.60;;
64597;SDS011;51004;54.692;9.332;2022-12-07T02:51:03;13.80;;;9.48;;
64597;SDS011;51004;54.692;9.332;2022-12-07T02:53:30;14.82;;;9.05;;
64597;SDS011;51004;54.692;9.332;2022-12-07T02:55:56;11.55;;;7.78;;
64597;SDS011;51004;54.692;9.332;2022-12-07T03:01:11;12.07;;;8.90;;
64597;SDS011;51004;54.692;9.332;2022-12-07T03:03:40;13.50;;;9.80;;
64597;SDS011;51004;54.692;9.332;2022-12-07T03:11:17;12.35;;;8.60;;
64597;SDS011;51004;54.692;9.332;2022-12-07T03:16:27;14.55;;;8.48;;
64597;SDS011;51004;54.692;9.332;2022-12-07T03:21:20;12.48;;;8.25;;
64597;SDS011;51004;54.692;9.332;2022-12-07T03:23:48;11.23;;;8.30;;
64597;SDS011;51004;54.692;9.332;2022-12-07T03:26:15;11.38;;;8.35;;
64597;SDS011;51004;54.692;9.332;2022-12-07T03:28:44;12.57;;;8.18;;
64597;SDS011;51004;54.692;9.332;2022-12-07T03:33:47;11.73;;;9.07;;
64597;SDS011;51004;54.692;9.332;2022-12-07T03:37:00;13.95;;;9.10;;
64597;SDS011;51004;54.692;9.332;2022-12-07T03:39:22;12.43;;;9.30;;
64597;SDS011;51004;54.692;9.332;2022-12-07T03:41:50;11.35;;;8.13;;
64597;SDS011;51004;54.692;9.332;2022-12-07T03:44:17;12.68;;;8.52;;
64597;SDS011;51004;54.692;9.332;2022-12-07T03:46:44;13.68;;;9.73;;
64597;SDS011;51004;54.692;9.332;2022-12-07T03:49:19;14.05;;;8.95;;
64597;SDS011;51004;54.692;9.332;2022-12-07T03:51:55;13.48;;;8.85;;
64597;SDS011;51004;54.692;9.332;2022-12-07T03:54:24;11.90;;;9.07;;
64597;SDS011;51004;54.692;9.332;2022-12-07T03:56:51;10.35;;;8.38;;
64597;SDS011;51004;54.692;9.332;2022-12-07T03:59:17;12.40;;;8.38;;
64597;SDS011;51004;54.692;9.332;2022-12-07T04:01:45;13.65;;;8.77;;
64597;SDS011;51004;54.692;9.332;2022-12-07T04:04:17;12.23;;;8.77;;
64597;SDS011;51004;54.692;9.332;2022-12-07T04:06:43;14.63;;;9.27;;
64597;SDS011;51004;54.692;9.332;2022-12-07T04:09:09;12.55;;;8.93;;
64597;SDS011;51004;54.692;9.332;2022-12-07T04:11:34;10.88;;;8.07;;
64597;SDS011;51004;54.692;9.332;2022-12-07T04:14:00;13.73;;;8.80;;
64597;SDS011;51004;54.692;9.332;2022-12-07T04:19:10;11.65;;;8.00;;
64597;SDS011;51004;54.692;9.332;2022-12-07T04:21:36;13.07;;;9.05;;
64597;SDS011;51004;54.692;9.332;2022-12-07T04:24:03;14.30;;;8.80;;
64597;SDS011;51004;54.692;9.332;2022-12-07T04:26:29;14.50;;;9.23;;
64597;SDS011;51004;54.692;9.332;2022-12-07T04:28:55;11.13;;;8.13;;
64597;SDS011;51004;54.692;9.332;2022-12-07T04:31:21;12.27;;;9.25;;
64597;SDS011;51004;54.692;9.332;2022-12-07T04:33:47;13.55;;;8.70;;
64597;SDS011;51004;54.692;9.332;2022-12-07T04:36:13;10.50;;;8.20;;
64597;SDS011;51004;54.692;9.332;2022-12-07T04:38:39;14.35;;;9.00;;
64597;SDS011;51004;54.692;9.332;2022-12-07T04:41:08;13.05;;;8.82;;
64597;SDS011;51004;54.692;9.332;2022-12-07T04:43:34;14.73;;;10.07;;
64597;SDS011;51004;54.692;9.332;2022-12-07T04:46:01;13.40;;;9.15;;
64597;SDS011;51004;54.692;9.332;2022-12-07T04:48:26;12.80;;;8.63;;
64597;SDS011;51004;54.692;9.332;2022-12-07T04:50:52;13.45;;;9.25;;
64597;SDS011;51004;54.692;9.332;2022-12-07T04:53:18;13.20;;;8.50;;
64597;SDS011;51004;54.692;9.332;2022-12-07T04:55:45;14.15;;;9.05;;
64597;SDS011;51004;54.692;9.332;2022-12-07T04:58:11;15.20;;;8.45;;
64597;SDS011;51004;54.692;9.332;2022-12-07T05:00:37;13.15;;;9.02;;
64597;SDS011;51004;54.692;9.332;2022-12-07T05:03:03;13.88;;;9.02;;
64597;SDS011;51004;54.692;9.332;2022-12-07T05:05:29;11.93;;;8.38;;
64597;SDS011;51004;54.692;9.332;2022-12-07T05:07:55;9.80;;;7.60;;
64597;SDS011;51004;54.692;9.332;2022-12-07T05:10:21;10.70;;;7.68;;
64597;SDS011;51004;54.692;9.332;2022-12-07T05:12:47;9.48;;;6.35;;
64597;SDS011;51004;54.692;9.332;2022-12-07T05:15:14;10.68;;;6.80;;
64597;SDS011;51004;54.692;9.332;2022-12-07T05:17:44;12.20;;;6.55;;
64597;SDS011;51004;54.692;9.332;2022-12-07T05:20:10;11.65;;;5.95;;
64597;SDS011;51004;54.692;9.332;2022-12-07T05:22:36;12.15;;;6.53;;
64597;SDS011;51004;54.692;9.332;2022-12-07T05:25:05;12.95;;;5.57;;
64597;SDS011;51004;54.692;9.332;2022-12-07T05:27:31;10.43;;;6.07;;
64597;SDS011;51004;54.692;9.332;2022-12-07T05:29:57;11.20;;;6.05;;
64597;SDS011;51004;54.692;9.332;2022-12-07T05:32:23;14.13;;;6.28;;
64597;SDS011;51004;54.692;9.332;2022-12-07T05:34:49;11.35;;;5.80;;
64597;SDS011;51004;54.692;9.332;2022-12-07T05:37:15;15.10;;;6.18;;
64597;SDS011;51004;54.692;9.332;2022-12-07T05:39:41;9.40;;;5.25;;
64597;SDS011;51004;54.692;9.332;2022-12-07T05:42:08;10.57;;;5.93;;
64597;SDS011;51004;54.692;9.332;2022-12-07T05:44:42;12.13;;;5.63;;
64597;SDS011;51004;54.692;9.332;2022-12-07T05:47:09;9.25;;;4.50;;
64597;SDS011;51004;54.692;9.332;2022-12-07T05:49:35;9.68;;;5.05;;
64597;SDS011;51004;54.692;9.332;2022-12-07T05:52:01;10.15;;;5.05;;
64597;SDS011;51004;54.692;9.332;2022-12-07T05:54:27;9.65;;;5.53;;
64597;SDS011;51004;54.692;9.332;2022-12-07T05:56:53;13.30;;;5.03;;
64597;SDS011;51004;54.692;9.332;2022-12-07T05:59:19;14.25;;;5.63;;
64597;SDS011;51004;54.692;9.332;2022-12-07T06:01:57;8.90;;;4.90;;
64597;SDS011;51004;54.692;9.332;2022-12-07T06:04:24;9.73;;;4.95;;
64597;SDS011;51004;54.692;9.332;2022-12-07T06:06:50;11.70;;;4.75;;
64597;SDS011;51004;54.692;9.332;2022-12-07T06:09:16;9.98;;;4.57;;
64597;SDS011;51004;54.692;9.332;2022-12-07T06:11:43;12.07;;;4.53;;
64597;SDS011;51004;54.692;9.332;2022-12-07T06:14:48;12.15;;;4.03;;
64597;SDS011;51004;54.692;9.332;2022-12-07T06:17:14;11.82;;;4.07;;
64597;SDS011;51004;54.692;9.332;2022-12-07T06:19:40;15.18;;;3.90;;
64597;SDS011;51004;54.692;9.332;2022-12-07T06:22:06;9.90;;;4.05;;
64597;SDS011;51004;54.692;9.332;2022-12-07T06:24:34;11.40;;;3.78;;
64597;SDS011;51004;54.692;9.332;2022-12-07T06:26:59;10.65;;;4.07;;
64597;SDS011;51004;54.692;9.332;2022-12-07T06:29:25;10.25;;;2.90;;
64597;SDS011;51004;54.692;9.332;2022-12-07T06:31:51;10.07;;;3.55;;
64597;SDS011;51004;54.692;9.332;2022-12-07T06:34:18;9.45;;;2.90;;
64597;SDS011;51004;54.692;9.332;2022-12-07T06:36:44;10.32;;;2.78;;
64597;SDS011;51004;54.692;9.332;2022-12-07T06:39:12;7.22;;;2.67;;
64597;SDS011;51004;54.692;9.332;2022-12-07T06:41:38;13.40;;;3.47;;
64597;SDS011;51004;54.692;9.332;2022-12-07T06:44:05;8.25;;;2.47;;
64597;SDS011;51004;54.692;9.332;2022-12-07T06:46:31;8.85;;;2.50;;
64597;SDS011;51004;54.692;9.332;2022-12-07T06:48:57;12.18;;;2.70;;
64597;SDS011;51004;54.692;9.332;2022-12-07T06:51:23;8.43;;;2.63;;
64597;SDS011;51004;54.692;9.332;2022-12-07T06:53:49;7.53;;;2.00;;
64597;SDS011;51004;54.692;9.332;2022-12-07T06:56:15;11.93;;;2.17;;
64597;SDS011;51004;54.692;9.332;2022-12-07T06:58:41;8.38;;;2.35;;
64597;SDS011;51004;54.692;9.332;2022-12-07T07:01:11;5.90;;;1.92;;
64597;SDS011;51004;54.692;9.332;2022-12-07T07:03:37;13.30;;;2.00;;
64597;SDS011;51004;54.692;9.332;2022-12-07T07:06:04;9.75;;;2.60;;
64597;SDS011;51004;54.692;9.332;2022-12-07T07:08:30;7.90;;;2.17;;
64597;SDS011;51004;54.692;9.332;2022-12-07T07:10:56;7.82;;;1.67;;
64597;SDS011;51004;54.692;9.332;2022-12-07T07:13:22;10.10;;;1.65;;
64597;SDS011;51004;54.692;9.332;2022-12-07T07:15:48;4.55;;;1.50;;
64597;SDS011;51004;54.692;9.332;2022-12-07T07:18:14;7.07;;;1.13;;
64597;SDS011;51004;54.692;9.332;2022-12-07T07:20:39;3.55;;;1.13;;
64597;SDS011;51004;54.692;9.332;2022-12-07T07:23:05;5.38;;;1.35;;
64597;SDS011;51004;54.692;9.332;2022-12-07T07:25:32;5.05;;;1.20;;
64597;SDS011;51004;54.692;9.332;2022-12-07T07:27:58;6.30;;;0.90;;
64597;SDS011;51004;54.692;9.332;2022-12-07T07:30:24;7.00;;;1.23;;
64597;SDS011;51004;54.692;9.332;2022-12-07T07:32:50;4.15;;;1.30;;
64597;SDS011;51004;54.692;9.332;2022-12-07T07:35:16;5.93;;;1.08;;
64597;SDS011;51004;54.692;9.332;2022-12-07T07:37:42;4.40;;;1.17;;
64597;SDS011;51004;54.692;9.332;2022-12-07T07:40:09;9.00;;;1.40;;
64597;SDS011;51004;54.692;9.332;2022-12-07T07:42:35;8.77;;;1.65;;
64597;SDS011;51004;54.692;9.332;2022-12-07T07:45:01;8.07;;;1.55;;
64597;SDS011;51004;54.692;9.332;2022-12-07T07:47:27;5.82;;;1.40;;
64597;SDS011;51004;54.692;9.332;2022-12-07T07:49:54;3.13;;;0.85;;
64597;SDS011;51004;54.692;9.332;2022-12-07T07:52:19;8.88;;;1.05;;
64597;SDS011;51004;54.692;9.332;2022-12-07T07:54:45;5.45;;;1.13;;
64597;SDS011;51004;54.692;9.332;2022-12-07T07:57:11;4.07;;;1.30;;
64597;SDS011;51004;54.692;9.332;2022-12-07T07:59:37;7.35;;;1.08;;
64597;SDS011;51004;54.692;9.332;2022-12-07T08:02:03;8.43;;;1.20;;
64597;SDS011;51004;54.692;9.332;2022-12-07T08:04:29;7.75;;;1.60;;
64597;SDS011;51004;54.692;9.332;2022-12-07T08:06:56;6.30;;;1.33;;
64597;SDS011;51004;54.692;9.332;2022-12-07T08:09:22;6.28;;;1.60;;
64597;SDS011;51004;54.692;9.332;2022-12-07T08:11:48;6.70;;;1.25;;
64597;SDS011;51004;54.692;9.332;2022-12-07T08:14:14;5.45;;;1.13;;
64597;SDS011;51004;54.692;9.332;2022-12-07T08:16:40;7.93;;;1.00;;
64597;SDS011;51004;54.692;9.332;2022-12-07T08:19:06;5.53;;;0.95;;
64597;SDS011;51004;54.692;9.332;2022-12-07T08:21:32;12.13;;;1.50;;
64597;SDS011;51004;54.692;9.332;2022-12-07T08:23:58;5.82;;;1.35;;
64597;SDS011;51004;54.692;9.332;2022-12-07T08:26:24;4.78;;;1.10;;
64597;SDS011;51004;54.692;9.332;2022-12-07T08:28:50;5.93;;;1.17;;
64597;SDS011;51004;54.692;9.332;2022-12-07T08:31:16;3.25;;;0.90;;
64597;SDS011;51004;54.692;9.332;2022-12-07T08:33:44;9.77;;;1.35;;
64597;SDS011;51004;54.692;9.332;2022-12-07T08:36:11;9.50;;;1.20;;
64597;SDS011;51004;54.692;9.332;2022-12-07T08:38:37;8.27;;;0.93;;
64597;SDS011;51004;54.692;9.332;2022-12-07T08:41:04;3.95;;;0.98;;
64597;SDS011;51004;54.692;9.332;2022-12-07T08:43:30;4.57;;;0.90;;
64597;SDS011;51004;54.692;9.332;2022-12-07T08:48:44;4.95;;;1.10;;
64597;SDS011;51004;54.692;9.332;2022-12-07T08:51:10;9.82;;;1.25;;
64597;SDS011;51004;54.692;9.332;2022-12-07T08:53:37;8.55;;;1.05;;
64597;SDS011;51004;54.692;9.332;2022-12-07T08:56:04;3.95;;;0.90;;
64597;SDS011;51004;54.692;9.332;2022-12-07T08:58:31;5.30;;;0.95;;
64597;SDS011;51004;54.692;9.332;2022-12-07T09:00:57;4.38;;;0.90;;
64597;SDS011;51004;54.692;9.332;2022-12-07T09:03:23;5.95;;;1.02;;
64597;SDS011;51004;54.692;9.332;2022-12-07T09:05:49;5.07;;;0.90;;
64597;SDS011;51004;54.692;9.332;2022-12-07T09:08:15;7.10;;;0.98;;
64597;SDS011;51004;54.692;9.332;2022-12-07T09:10:41;6.15;;;0.82;;
64597;SDS011;51004;54.692;9.332;2022-12-07T09:13:07;5.40;;;1.00;;
64597;SDS011;51004;54.692;9.332;2022-12-07T09:15:33;5.30;;;0.93;;
64597;SDS011;51004;54.692;9.332;2022-12-07T09:17:59;2.60;;;0.73;;
64597;SDS011;51004;54.692;9.332;2022-12-07T09:20:25;7.03;;;0.90;;
64597;SDS011;51004;54.692;9.332;2022-12-07T09:22:51;3.15;;;0.90;;
64597;SDS011;51004;54.692;9.332;2022-12-07T09:25:17;5.18;;;1.05;;
64597;SDS011;51004;54.692;9.332;2022-12-07T09:27:43;5.25;;;1.98;;
64597;SDS011;51004;54.692;9.332;2022-12-07T09:30:09;10.25;;;1.15;;
64597;SDS011;51004;54.692;9.332;2022-12-07T09:32:35;6.28;;;1.10;;
64597;SDS011;51004;54.692;9.332;2022-12-07T09:35:01;3.47;;;0.90;;
64597;SDS011;51004;54.692;9.332;2022-12-07T09:37:27;5.47;;;0.90;;
64597;SDS011;51004;54.692;9.332;2022-12-07T09:39:53;4.07;;;1.30;;
64597;SDS011;51004;54.692;9.332;2022-12-07T09:42:25;5.60;;;0.80;;
64597;SDS011;51004;54.692;9.332;2022-12-07T09:44:52;2.90;;;0.60;;
64597;SDS011;51004;54.692;9.332;2022-12-07T09:47:18;2.85;;;0.80;;
64597;SDS011;51004;54.692;9.332;2022-12-07T09:49:44;3.38;;;0.88;;
64597;SDS011;51004;54.692;9.332;2022-12-07T09:52:20;4.75;;;1.00;;
64597;SDS011;51004;54.692;9.332;2022-12-07T09:54:51;4.93;;;0.60;;
64597;SDS011;51004;54.692;9.332;2022-12-07T09:57:17;1.45;;;0.70;;
64597;SDS011;51004;54.692;9.332;2022-12-07T09:59:44;4.55;;;0.90;;
64597;SDS011;51004;54.692;9.332;2022-12-07T10:04:54;8.60;;;0.75;;
64597;SDS011;51004;54.692;9.332;2022-12-07T10:07:21;3.75;;;1.05;;
64597;SDS011;51004;54.692;9.332;2022-12-07T10:09:47;5.15;;;1.30;;
64597;SDS011;51004;54.692;9.332;2022-12-07T10:12:13;5.82;;;1.17;;
64597;SDS011;51004;54.692;9.332;2022-12-07T10:14:52;2.53;;;0.90;;
64597;SDS011;51004;54.692;9.332;2022-12-07T10:17:35;3.20;;;0.80;;
64597;SDS011;51004;54.692;9.332;2022-12-07T10:20:17;3.92;;;0.98;;
64597;SDS011;51004;54.692;9.332;2022-12-07T10:23:00;5.18;;;1.00;;
64597;SDS011;51004;54.692;9.332;2022-12-07T10:25:28;2.67;;;0.70;;
64597;SDS011;51004;54.692;9.332;2022-12-07T10:28:00;3.83;;;0.80;;
64597;SDS011;51004;54.692;9.332;2022-12-07T10:30:26;4.30;;;1.02;;
64597;SDS011;51004;54.692;9.332;2022-12-07T10:32:52;6.38;;;0.80;;
64597;SDS011;51004;54.692;9.332;2022-12-07T10:35:25;3.35;;;0.75;;
64597;SDS011;51004;54.692;9.332;2022-12-07T10:37:52;5.18;;;0.70;;
64597;SDS011;51004;54.692;9.332;2022-12-07T10:58:24;6.55;;;1.08;;
64597;SDS011;51004;54.692;9.332;2022-12-07T11:03:51;4.97;;;0.80;;
64597;SDS011;51004;54.692;9.332;2022-12-07T11:06:23;1.98;;;0.60;;
64597;SDS011;51004;54.692;9.332;2022-12-07T11:09:00;3.70;;;0.70;;
64597;SDS011;51004;54.692;9.332;2022-12-07T11:21:45;4.10;;;1.10;;
64597;SDS011;51004;54.692;9.332;2022-12-07T11:24:18;3.17;;;0.85;;
64597;SDS011;51004;54.692;9.332;2022-12-07T11:36:51;2.13;;;0.57;;
64597;SDS011;51004;54.692;9.332;2022-12-07T11:41:44;1.65;;;0.65;;
64597;SDS011;51004;54.692;9.332;2022-12-07T11:44:33;4.40;;;0.80;;
64597;SDS011;51004;54.692;9.332;2022-12-07T11:47:17;2.40;;;0.75;;
64597;SDS011;51004;54.692;9.332;2022-12-07T11:49:52;4.60;;;0.82;;
64597;SDS011;51004;54.692;9.332;2022-12-07T11:52:25;1.77;;;0.70;;
64597;SDS011;51004;54.692;9.332;2022-12-07T11:54:52;1.92;;;0.57;;
64597;SDS011;51004;54.692;9.332;2022-12-07T11:57:20;2.85;;;0.70;;
64597;SDS011;51004;54.692;9.332;2022-12-07T11:59:50;3.72;;;0.70;;
64597;SDS011;51004;54.692;9.332;2022-12-07T12:02:20;6.95;;;0.90;;
64597;SDS011;51004;54.692;9.332;2022-12-07T12:07:33;4.15;;;1.02;;
64597;SDS011;51004;54.692;9.332;2022-12-07T12:10:06;3.38;;;1.15;;
64597;SDS011;51004;54.692;9.332;2022-12-07T12:15:28;2.28;;;0.80;;
64597;SDS011;51004;54.692;9.332;2022-12-07T12:18:03;9.77;;;3.90;;
64597;SDS011;51004;54.692;9.332;2022-12-07T12:20:32;2.78;;;1.58;;
64597;SDS011;51004;54.692;9.332;2022-12-07T12:23:05;3.35;;;0.80;;
64597;SDS011;51004;54.692;9.332;2022-12-07T12:25:36;1.38;;;0.60;;
64597;SDS011;51004;54.692;9.332;2022-12-07T12:28:03;1.10;;;0.50;;
64597;SDS011;51004;54.692;9.332;2022-12-07T12:30:32;2.15;;;0.82;;
64597;SDS011;51004;54.692;9.332;2022-12-07T12:33:31;1.13;;;0.60;;
64597;SDS011;51004;54.692;9.332;2022-12-07T12:36:42;6.30;;;1.17;;
64597;SDS011;51004;54.692;9.332;2022-12-07T12:43:59;2.90;;;0.60;;
64597;SDS011;51004;54.692;9.332;2022-12-07T12:54:23;1.73;;;0.75;;
64597;SDS011;51004;54.692;9.332;2022-12-07T12:59:39;1.52;;;0.60;;
64597;SDS011;51004;54.692;9.332;2022-12-07T13:02:14;3.95;;;0.82;;
64597;SDS011;51004;54.692;9.332;2022-12-07T13:04:51;4.50;;;0.75;;
64597;SDS011;51004;54.692;9.332;2022-12-07T13:10:02;4.32;;;0.70;;
64597;SDS011;51004;54.692;9.332;2022-12-07T13:12:28;2.85;;;0.68;;
64597;SDS011;51004;54.692;9.332;2022-12-07T13:14:57;3.67;;;0.88;;
64597;SDS011;51004;54.692;9.332;2022-12-07T13:20:05;4.30;;;0.75;;
64597;SDS011;51004;54.692;9.332;2022-12-07T13:27:31;4.05;;;0.95;;
64597;SDS011;51004;54.692;9.332;2022-12-07T13:29:57;2.70;;;0.70;;
64597;SDS011;51004;54.692;9.332;2022-12-07T13:32:28;1.75;;;0.70;;
64597;SDS011;51004;54.692;9.332;2022-12-07T13:34:54;3.50;;;1.20;;
64597;SDS011;51004;54.692;9.332;2022-12-07T13:37:23;4.55;;;1.10;;
64597;SDS011;51004;54.692;9.332;2022-12-07T13:39:51;2.80;;;0.80;;
64597;SDS011;51004;54.692;9.332;2022-12-07T13:42:33;1.70;;;0.70;;
64597;SDS011;51004;54.692;9.332;2022-12-07T13:45:14;4.22;;;1.58;;
64597;SDS011;51004;54.692;9.332;2022-12-07T13:47:49;4.63;;;0.93;;
64597;SDS011;51004;54.692;9.332;2022-12-07T13:50:25;1.77;;;0.80;;
64597;SDS011;51004;54.692;9.332;2022-12-07T13:55:17;2.50;;;1.02;;
64597;SDS011;51004;54.692;9.332;2022-12-07T13:57:44;2.65;;;0.77;;
64597;SDS011;51004;54.692;9.332;2022-12-07T14:00:17;4.88;;;1.02;;
64597;SDS011;51004;54.692;9.332;2022-12-07T14:05:14;4.20;;;1.02;;
64597;SDS011;51004;54.692;9.332;2022-12-07T14:10:22;1.85;;;0.63;;
64597;SDS011;51004;54.692;9.332;2022-12-07T14:12:49;2.38;;;0.73;;
64597;SDS011;51004;54.692;9.332;2022-12-07T14:15:19;1.70;;;0.80;;
64597;SDS011;51004;54.692;9.332;2022-12-07T14:17:49;6.85;;;1.00;;
64597;SDS011;51004;54.692;9.332;2022-12-07T14:20:29;2.42;;;1.30;;
64597;SDS011;51004;54.692;9.332;2022-12-07T14:22:56;5.38;;;3.47;;
64597;SDS011;51004;54.692;9.332;2022-12-07T14:25:25;5.35;;;1.70;;
64597;SDS011;51004;54.692;9.332;2022-12-07T14:30:20;1.33;;;0.70;;
64597;SDS011;51004;54.692;9.332;2022-12-07T14:32:47;2.15;;;0.90;;
64597;SDS011;51004;54.692;9.332;2022-12-07T14:35:16;1.92;;;0.70;;
64597;SDS011;51004;54.692;9.332;2022-12-07T14:37:43;2.65;;;0.75;;
64597;SDS011;51004;54.692;9.332;2022-12-07T14:40:12;3.38;;;0.63;;
64597;SDS011;51004;54.692;9.332;2022-12-07T14:42:38;1.88;;;0.50;;
64597;SDS011;51004;54.692;9.332;2022-12-07T14:45:05;1.45;;;0.57;;
64597;SDS011;51004;54.692;9.332;2022-12-07T14:47:31;2.83;;;0.70;;
64597;SDS011;51004;54.692;9.332;2022-12-07T14:49:57;3.40;;;0.88;;
64597;SDS011;51004;54.692;9.332;2022-12-07T14:52:25;1.60;;;0.70;;
64597;SDS011;51004;54.692;9.332;2022-12-07T14:54:52;4.45;;;0.93;;
64597;SDS011;51004;54.692;9.332;2022-12-07T14:57:18;2.15;;;0.70;;
64597;SDS011;51004;54.692;9.332;2022-12-07T14:59:44;3.97;;;0.73;;
64597;SDS011;51004;54.692;9.332;2022-12-07T15:02:11;3.80;;;1.00;;
64597;SDS011;51004;54.692;9.332;2022-12-07T15:04:37;3.75;;;1.00;;
64597;SDS011;51004;54.692;9.332;2022-12-07T15:07:04;1.95;;;0.88;;
64597;SDS011;51004;54.692;9.332;2022-12-07T15:09:30;3.58;;;1.05;;
64597;SDS011;51004;54.692;9.332;2022-12-07T15:11:56;5.60;;;1.10;;
64597;SDS011;51004;54.692;9.332;2022-12-07T15:14:22;2.55;;;1.30;;
64597;SDS011;51004;54.692;9.332;2022-12-07T15:16:48;2.30;;;0.85;;
64597;SDS011;51004;54.692;9.332;2022-12-07T15:19:16;4.43;;;1.60;;
64597;SDS011;51004;54.692;9.332;2022-12-07T15:21:42;2.35;;;1.33;;
64597;SDS011;51004;54.692;9.332;2022-12-07T15:24:09;4.55;;;1.92;;
64597;SDS011;51004;54.692;9.332;2022-12-07T15:26:36;6.30;;;1.83;;
64597;SDS011;51004;54.692;9.332;2022-12-07T15:29:02;5.07;;;2.10;;
64597;SDS011;51004;54.692;9.332;2022-12-07T15:31:28;5.10;;;2.30;;
64597;SDS011;51004;54.692;9.332;2022-12-07T15:33:54;6.07;;;2.55;;
64597;SDS011;51004;54.692;9.332;2022-12-07T15:36:21;6.03;;;1.92;;
64597;SDS011;51004;54.692;9.332;2022-12-07T15:38:47;9.13;;;2.40;;
64597;SDS011;51004;54.692;9.332;2022-12-07T15:41:13;5.38;;;2.58;;
64597;SDS011;51004;54.692;9.332;2022-12-07T15:43:39;6.47;;;2.22;;
64597;SDS011;51004;54.692;9.332;2022-12-07T15:46:29;6.85;;;2.08;;
64597;SDS011;51004;54.692;9.332;2022-12-07T15:48:55;5.15;;;1.98;;
64597;SDS011;51004;54.692;9.332;2022-12-07T15:51:21;4.72;;;2.00;;
64597;SDS011;51004;54.692;9.332;2022-12-07T15:53:47;4.68;;;1.77;;
64597;SDS011;51004;54.692;9.332;2022-12-07T15:56:13;5.82;;;1.90;;
64597;SDS011;51004;54.692;9.332;2022-12-07T15:58:39;6.70;;;2.20;;
64597;SDS011;51004;54.692;9.332;2022-12-07T16:01:09;5.55;;;2.47;;
64597;SDS011;51004;54.692;9.332;2022-12-07T16:03:35;4.30;;;2.00;;
64597;SDS011;51004;54.692;9.332;2022-12-07T16:06:01;3.58;;;1.98;;
64597;SDS011;51004;54.692;9.332;2022-12-07T16:08:27;2.65;;;1.38;;
64597;SDS011;51004;54.692;9.332;2022-12-07T16:10:53;2.63;;;1.40;;
64597;SDS011;51004;54.692;9.332;2022-12-07T16:13:19;5.00;;;2.20;;
64597;SDS011;51004;54.692;9.332;2022-12-07T16:15:46;4.82;;;2.25;;
64597;SDS011;51004;54.692;9.332;2022-12-07T16:18:12;4.55;;;2.00;;
64597;SDS011;51004;54.692;9.332;2022-12-07T16:20:38;3.40;;;1.70;;
64597;SDS011;51004;54.692;9.332;2022-12-07T16:23:04;3.65;;;1.88;;
64597;SDS011;51004;54.692;9.332;2022-12-07T16:25:30;10.52;;;7.95;;
64597;SDS011;51004;54.692;9.332;2022-12-07T16:27:56;13.48;;;10.73;;
64597;SDS011;51004;54.692;9.332;2022-12-07T16:30:22;8.82;;;5.00;;
64597;SDS011;51004;54.692;9.332;2022-12-07T16:32:48;4.63;;;3.33;;
64597;SDS011;51004;54.692;9.332;2022-12-07T16:35:14;7.35;;;4.18;;
64597;SDS011;51004;54.692;9.332;2022-12-07T16:37:43;5.05;;;3.72;;
64597;SDS011;51004;54.692;9.332;2022-12-07T16:40:09;13.90;;;9.27;;